Time;durP1;ratioP1;P1;durP2;ratioP2;P2;SDS_P1;SDS_P2;PMS_P1;PMS_P2;Temp;Humidity;BMP_temperature;BMP_pressure;BME280_temperature;BME280_humidity;BME280_pressure;Samples;Min_cycle;Max_cycle;Signal;HPM_P1;HPM_P2
2022/12/06 00:02:20;;;;;;;11.57;6.32;;;;;;;4.47;100.00;101893.44;5079367;28;20543;-87
2022/12/06 00:04:46;;;;;;;8.70;5.75;;;;;;;4.46;100.00;101886.34;5080010;28;20039;-87
2022/12/06 00:07:12;;;;;;;9.97;5.60;;;;;;;4.47;100.00;101880.84;5079239;28;20472;-87
2022/12/06 00:09:37;;;;;;;9.43;6.07;;;;;;;4.49;100.00;101886.09;5078724;28;20040;-87
2022/12/06 00:12:03;;;;;;;9.90;5.43;;;;;;;4.47;100.00;101885.38;5062150;28;20024;-86
2022/12/06 00:14:28;;;;;;;11.32;6.35;;;;;;;4.47;100.00;101890.75;5046648;28;20032;-86
2022/12/06 00:16:57;;;;;;;9.43;6.00;;;;;;;4.48;100.00;101887.91;5063001;28;20131;-87
2022/12/06 00:19:23;;;;;;;10.55;6.20;;;;;;;4.50;100.00;101887.75;5078904;28;20484;-86
2022/12/06 00:21:53;;;;;;;9.77;5.60;;;;;;;4.47;100.00;101890.75;5078693;28;20043;-86
2022/12/06 00:24:21;;;;;;;9.47;5.83;;;;;;;4.48;100.00;101892.44;5078978;28;20111;-86
2022/12/06 00:26:48;;;;;;;11.35;5.97;;;;;;;4.47;100.00;101888.91;5097586;28;20036;-86
2022/12/06 00:29:17;;;;;;;8.82;5.47;;;;;;;4.50;100.00;101880.56;5078532;28;20031;-86
2022/12/06 00:31:43;;;;;;;8.55;5.88;;;;;;;4.50;100.00;101887.75;5079341;28;20024;-86
2022/12/06 00:34:09;;;;;;;9.20;5.77;;;;;;;4.51;100.00;101876.84;5096676;28;20392;-86
2022/12/06 00:36:37;;;;;;;8.15;5.47;;;;;;;4.51;100.00;101878.72;5062045;28;20043;-86
2022/12/06 00:39:11;;;;;;;9.50;5.80;;;;;;;4.53;100.00;101884.78;5078311;28;20043;-86
2022/12/06 00:41:37;;;;;;;9.30;5.90;;;;;;;4.51;100.00;101881.41;5079027;28;20031;-86
2022/12/06 00:44:05;;;;;;;9.70;5.87;;;;;;;4.51;100.00;101884.91;5097058;28;20487;-87
2022/12/06 00:46:32;;;;;;;12.00;5.80;;;;;;;4.53;100.00;101882.94;5078527;28;20040;-86
2022/12/06 00:48:58;;;;;;;8.90;5.32;;;;;;;4.54;100.00;101879.25;5079051;28;20066;-86
2022/12/06 00:51:26;;;;;;;9.15;5.80;;;;;;;4.54;100.00;101881.94;5078081;28;20024;-86
2022/12/06 00:53:52;;;;;;;10.57;6.38;;;;;;;4.55;100.00;101883.63;5078427;28;20055;-86
2022/12/06 00:56:18;;;;;;;9.87;6.20;;;;;;;4.57;100.00;101888.84;5061620;28;20545;-86
2022/12/06 00:58:44;;;;;;;9.02;5.90;;;;;;;4.57;100.00;101883.47;5061519;28;20028;-86
2022/12/06 01:01:14;;;;;;;8.60;5.57;;;;;;;4.54;100.00;101876.56;5074626;28;20052;-86
2022/12/06 01:03:40;;;;;;;9.45;5.75;;;;;;;4.56;100.00;101882.66;5074943;28;20468;-87
2022/12/06 01:06:09;;;;;;;9.13;6.00;;;;;;;4.56;100.00;101888.03;5074859;28;20029;-86
2022/12/06 01:08:38;;;;;;;7.95;5.13;;;;;;;4.58;100.00;101890.56;5074753;28;20037;-86
2022/12/06 01:11:05;;;;;;;8.30;5.32;;;;;;;4.56;100.00;101882.66;5074707;28;20032;-86
2022/12/06 01:13:30;;;;;;;8.43;5.33;;;;;;;4.56;100.00;101879.97;5058138;28;20028;-86
2022/12/06 01:15:56;;;;;;;9.00;5.60;;;;;;;4.57;100.00;101883.47;5075489;28;20103;-86
2022/12/06 01:18:22;;;;;;;9.47;5.50;;;;;;;4.59;100.00;101880.63;5074599;28;20020;-86
2022/12/06 01:20:47;;;;;;;8.13;5.35;;;;;;;4.58;100.00;101879.81;5074232;28;20108;-86
2022/12/06 01:23:14;;;;;;;9.63;5.00;;;;;;;4.59;100.00;101888.69;5075528;28;20456;-86
2022/12/06 01:25:48;;;;;;;7.53;5.05;;;;;;;4.59;100.00;101880.63;5057441;28;20032;-86
2022/12/06 01:28:17;;;;;;;7.95;5.13;;;;;;;4.61;100.00;101889.41;5075743;28;20032;-86
2022/12/06 01:30:42;;;;;;;8.00;4.93;;;;;;;4.59;100.00;101881.47;5058400;28;20087;-86
2022/12/06 01:33:07;;;;;;;7.80;4.68;;;;;;;4.57;100.00;101883.47;5074297;28;20415;-86
2022/12/06 01:35:37;;;;;;;8.63;4.70;;;;;;;4.60;100.00;101887.72;5074237;28;20064;-86
2022/12/06 01:38:02;;;;;;;8.07;4.72;;;;;;;4.62;100.00;101893.78;5073842;28;20025;-86
2022/12/06 01:40:28;;;;;;;9.97;5.13;;;;;;;4.59;100.00;101883.31;5074123;28;20032;-86
2022/12/06 01:42:53;;;;;;;9.57;4.87;;;;;;;4.62;100.00;101885.72;5074148;28;20032;-86
2022/12/06 01:45:19;;;;;;;8.60;4.90;;;;;;;4.63;100.00;101890.09;5074057;28;20124;-86
2022/12/06 01:47:44;;;;;;;8.80;5.30;;;;;;;4.63;100.00;101890.94;5040819;28;20025;-86
2022/12/06 01:50:29;;;;;;;7.35;4.57;;;;;;;4.65;100.00;101880.03;5057354;28;20385;-86
2022/12/06 01:53:07;;;;;;;11.85;4.88;;;;;;;4.64;100.00;101873.81;5073731;28;20054;-86
2022/12/06 01:55:37;;;;;;;10.30;5.50;;;;;;;4.64;100.00;101875.66;5074122;28;20024;-86
2022/12/06 01:58:11;;;;;;;10.10;5.45;;;;;;;4.63;100.00;101876.66;5072798;28;20046;-86
2022/12/06 02:00:40;;;;;;;9.27;4.60;;;;;;;4.65;100.00;101877.34;5073536;28;20062;-86
2022/12/06 02:03:09;;;;;;;8.00;4.88;;;;;;;4.65;100.00;101877.34;5072899;28;20036;-86
2022/12/06 02:05:39;;;;;;;8.70;5.45;;;;;;;4.65;100.00;101877.34;5073658;28;20119;-86
2022/12/06 02:08:08;;;;;;;9.52;4.88;;;;;;;4.64;100.00;101881.03;5073686;28;20028;-86
2022/12/06 02:10:34;;;;;;;8.18;5.18;;;;;;;4.65;100.00;101877.34;5074183;28;20024;-86
2022/12/06 02:13:05;;;;;;;8.75;5.13;;;;;;;4.66;100.00;101879.88;5056885;28;20445;-86
2022/12/06 02:16:01;;;;;;;10.13;5.47;;;;;;;4.64;100.00;101878.34;5074778;28;20036;-86
2022/12/06 02:18:26;;;;;;;9.90;4.60;;;;;;;4.64;100.00;101881.88;5073055;28;20036;-86
2022/12/06 02:21:17;;;;;;;9.82;4.47;;;;;;;4.63;100.00;101880.19;5073434;28;20028;-85
2022/12/06 02:24:14;;;;;;;9.00;4.63;;;;;;;4.63;100.00;101880.19;5074617;28;20107;-86
2022/12/06 02:26:49;;;;;;;8.85;4.68;;;;;;;4.63;100.00;101879.34;5074839;28;20060;-86
2022/12/06 02:29:42;;;;;;;9.65;4.32;;;;;;;4.63;100.00;101874.81;5074026;28;20067;-86
2022/12/06 02:32:22;;;;;;;7.95;4.50;;;;;;;4.60;100.00;101868.91;5074468;28;20020;-86
2022/12/06 02:35:16;;;;;;;8.30;4.13;;;;;;;4.61;100.00;101865.22;5073993;28;20123;-86
2022/12/06 02:37:52;;;;;;;7.30;4.00;;;;;;;4.59;100.00;101873.41;5074165;28;20071;-85
2022/12/06 02:40:27;;;;;;;6.10;3.60;;;;;;;4.60;100.00;101868.91;5073917;28;20056;-86
2022/12/06 02:42:57;;;;;;;9.60;4.30;;;;;;;4.56;100.00;101861.13;5073505;28;20029;-86
2022/12/06 02:45:33;;;;;;;7.70;4.05;;;;;;;4.58;100.00;101863.69;5073186;28;20074;-86
2022/12/06 02:48:02;;;;;;;7.80;4.13;;;;;;;4.54;100.00;101862.28;5072910;28;20026;-86
2022/12/06 02:50:38;;;;;;;6.18;3.75;;;;;;;4.55;100.00;101862.13;5074072;28;20048;-86
2022/12/06 02:53:07;;;;;;;9.05;4.10;;;;;;;4.51;100.00;101863.41;5072925;28;20033;-87
2022/12/06 02:55:33;;;;;;;9.35;4.07;;;;;;;4.49;100.00;101862.72;5073473;28;20062;-87
2022/12/06 02:57:58;;;;;;;8.00;3.97;;;;;;;4.49;100.00;101861.91;5072376;28;20021;-87
2022/12/06 03:00:34;;;;;;;8.55;3.97;;;;;;;4.51;100.00;101866.09;5074534;28;20436;-87
2022/12/06 03:03:38;;;;;;;7.73;4.10;;;;;;;4.50;100.00;101861.75;5076308;28;20464;-86
2022/12/06 03:06:39;;;;;;;7.85;4.65;;;;;;;4.54;100.00;101862.28;5076530;28;20118;-87
2022/12/06 03:09:04;;;;;;;8.45;4.18;;;;;;;4.53;100.00;101855.19;5075720;28;20074;-86
2022/12/06 03:11:54;;;;;;;8.13;4.20;;;;;;;4.57;100.00;101860.13;5075555;28;20031;-86
2022/12/06 03:14:23;;;;;;;8.00;4.22;;;;;;;4.53;100.00;101856.06;5076138;28;20032;-86
2022/12/06 03:16:54;;;;;;;8.77;3.95;;;;;;;4.53;100.00;101857.88;5075875;28;20024;-86
2022/12/06 03:19:26;;;;;;;8.13;4.18;;;;;;;4.55;100.00;101867.50;5076037;28;20031;-87
2022/12/06 03:22:13;;;;;;;9.20;4.03;;;;;;;4.56;100.00;101865.66;5075837;28;20039;-86
2022/12/06 03:24:41;;;;;;;8.65;4.00;;;;;;;4.54;100.00;101871.19;5075866;28;20039;-86
2022/12/06 03:27:11;;;;;;;8.02;4.22;;;;;;;4.53;100.00;101871.31;5075696;28;20081;-86
2022/12/06 03:29:44;;;;;;;8.18;4.25;;;;;;;4.53;100.00;101865.94;5093477;28;20034;-87
2022/12/06 03:32:14;;;;;;;9.68;5.07;;;;;;;4.52;100.00;101875.88;5076492;28;20044;-86
2022/12/06 03:34:47;;;;;;;8.68;4.35;;;;;;;4.52;100.00;101870.50;5075684;28;20036;-86
2022/12/06 03:37:19;;;;;;;12.07;4.88;;;;;;;4.51;100.00;101863.41;5075216;28;20047;-87
2022/12/06 03:40:02;;;;;;;8.27;5.15;;;;;;;4.52;100.00;101875.03;5093765;28;20038;-87
2022/12/06 03:42:29;;;;;;;8.85;4.72;;;;;;;4.51;100.00;101868.78;5075631;28;20069;-86
2022/12/06 03:44:54;;;;;;;10.63;5.03;;;;;;;4.48;100.00;101866.41;5075846;28;20028;-87
2022/12/06 03:47:30;;;;;;;10.52;4.95;;;;;;;4.48;100.00;101866.41;5075482;28;20070;-86
2022/12/06 03:50:05;;;;;;;11.35;4.43;;;;;;;4.48;100.00;101870.94;5075802;28;20057;-86
2022/12/06 03:52:32;;;;;;;13.50;5.70;;;;;;;4.47;100.00;101862.03;5076047;28;20119;-86
2022/12/06 03:54:58;;;;;;;11.70;5.47;;;;;;;4.50;100.00;101864.44;5076025;28;20055;-87
2022/12/06 03:57:23;;;;;;;10.55;5.35;;;;;;;4.48;100.00;101868.25;5093160;28;20452;-86
2022/12/06 03:59:51;;;;;;;12.97;5.63;;;;;;;4.47;100.00;101866.56;5075199;28;20040;-86
2022/12/06 04:02:17;;;;;;;13.00;5.72;;;;;;;4.44;100.00;101858.81;5042523;28;20066;-86
2022/12/06 04:04:42;;;;;;;13.97;5.30;;;;;;;4.45;100.00;101865.88;5075351;28;20122;-86
2022/12/06 04:07:13;;;;;;;10.33;5.63;;;;;;;4.44;100.00;101866.88;5042950;28;20020;-86
2022/12/06 04:13:01;;;;;;;15.07;5.82;;;;;;;4.44;100.00;101864.19;5011976;28;20042;-86
2022/12/06 04:15:29;;;;;;;12.47;5.57;;;;;;;4.44;100.00;101866.88;5011224;28;20048;-86
2022/12/06 04:18:14;;;;;;;10.25;5.05;;;;;;;4.42;100.00;101858.13;5043455;28;20042;-86
2022/12/06 04:23:28;;;;;;;14.57;6.05;;;;;;;4.38;100.00;101863.78;5093298;28;20047;-85
2022/12/06 04:25:53;;;;;;;11.48;5.72;;;;;;;4.38;100.00;101861.09;5076712;28;20030;-86
2022/12/06 04:39:14;;;;;;;14.95;6.03;;;;;;;4.38;100.00;101874.53;5067422;28;20534;-86
2022/12/06 04:44:24;;;;;;;14.20;6.05;;;;;;;4.41;100.00;101869.84;5081812;28;20094;-86
2022/12/06 04:46:49;;;;;;;12.87;6.00;;;;;;;4.38;100.00;101871.84;5079318;28;20024;-86
2022/12/06 04:49:15;;;;;;;13.27;6.20;;;;;;;4.36;100.00;101865.78;5061822;28;20388;-86
2022/12/06 04:51:41;;;;;;;15.20;5.95;;;;;;;4.35;100.00;101866.75;5061864;28;20062;-86
2022/12/06 04:54:06;;;;;;;16.60;6.05;;;;;;;4.34;100.00;101865.09;5078059;28;20032;-86
2022/12/06 04:56:32;;;;;;;15.40;5.73;;;;;;;4.36;100.00;101867.63;5077972;28;20369;-86
2022/12/06 04:58:57;;;;;;;15.90;7.00;;;;;;;4.35;100.00;101865.91;5078412;28;20035;-86
2022/12/06 05:01:23;;;;;;;15.13;6.53;;;;;;;4.34;100.00;101858.84;5078086;28;20070;-86
2022/12/06 05:03:54;;;;;;;12.77;5.68;;;;;;;4.34;100.00;101864.22;5078288;28;20119;-86
2022/12/06 05:06:19;;;;;;;17.13;5.97;;;;;;;4.34;100.00;101861.53;5078146;28;20028;-86
2022/12/06 05:08:45;;;;;;;12.45;5.70;;;;;;;4.34;100.00;101862.41;5078157;28;20024;-86
2022/12/06 05:11:16;;;;;;;11.60;5.63;;;;;;;4.36;100.00;101862.25;5061723;28;20028;-86
2022/12/06 05:13:41;;;;;;;15.45;5.65;;;;;;;4.35;100.00;101865.91;5061955;28;20453;-86
2022/12/06 05:16:07;;;;;;;15.67;5.97;;;;;;;4.34;100.00;101861.53;5078255;28;20028;-86
2022/12/06 05:18:33;;;;;;;18.92;6.00;;;;;;;4.35;100.00;101856.00;5077649;28;20093;-86
2022/12/06 05:21:14;;;;;;;12.57;6.00;;;;;;;4.35;100.00;101850.63;5095916;28;20112;-86
2022/12/06 05:23:41;;;;;;;18.67;6.93;;;;;;;4.36;100.00;101855.03;5077765;28;20040;-86
2022/12/06 05:26:17;;;;;;;15.27;6.15;;;;;;;4.33;100.00;101852.63;5077784;28;20032;-86
2022/12/06 05:28:43;;;;;;;10.70;5.78;;;;;;;4.35;100.00;101852.47;5078074;28;20060;-86
2022/12/06 05:31:09;;;;;;;17.73;6.00;;;;;;;4.36;100.00;101852.34;5077794;28;20027;-86
2022/12/06 05:33:35;;;;;;;16.50;5.68;;;;;;;4.36;100.00;101856.88;5077145;28;20036;-86
2022/12/06 05:36:24;;;;;;;15.10;5.97;;;;;;;4.37;100.00;101859.41;5077617;28;20036;-86
2022/12/06 05:38:50;;;;;;;14.15;5.97;;;;;;;4.36;100.00;101848.81;5077494;28;20035;-86
2022/12/06 05:41:16;;;;;;;16.73;5.53;;;;;;;4.38;100.00;101854.88;5077331;28;20036;-87
2022/12/06 05:43:42;;;;;;;13.63;5.97;;;;;;;4.38;100.00;101853.03;5078022;28;20039;-86
2022/12/06 05:46:07;;;;;;;10.83;4.67;;;;;;;4.38;100.00;101852.19;5077365;28;20032;-86
2022/12/06 05:48:33;;;;;;;11.50;4.70;;;;;;;4.35;100.00;101858.69;5060575;28;20278;-86
2022/12/06 05:51:02;;;;;;;12.88;4.90;;;;;;;4.34;100.00;101861.53;5077273;28;20043;-86
2022/12/06 05:53:30;;;;;;;8.07;4.63;;;;;;;4.32;100.00;101853.63;5077248;28;20024;-86
2022/12/06 05:56:04;;;;;;;14.45;4.97;;;;;;;4.30;100.00;101854.78;5077595;28;20051;-86
2022/12/06 05:58:29;;;;;;;17.23;5.70;;;;;;;4.31;100.00;101854.63;5061790;28;20077;-86
2022/12/06 06:00:55;;;;;;;12.53;5.03;;;;;;;4.30;100.00;101857.47;5077092;28;20060;-86
2022/12/06 06:03:20;;;;;;;13.13;5.10;;;;;;;4.30;100.00;101863.69;5076776;28;20036;-86
2022/12/06 06:05:49;;;;;;;15.80;5.10;;;;;;;4.27;100.00;101863.16;5060951;28;20044;-86
2022/12/06 06:08:15;;;;;;;12.50;5.72;;;;;;;4.26;100.00;101856.91;5076906;28;20102;-86
2022/12/06 06:10:41;;;;;;;10.82;4.50;;;;;;;4.21;100.00;101851.16;5060408;28;20035;-86
2022/12/06 06:13:06;;;;;;;13.17;4.70;;;;;;;4.19;100.00;101855.81;5076850;28;20097;-86
2022/12/06 06:15:32;;;;;;;10.37;4.70;;;;;;;4.16;100.00;101858.78;5076719;28;20118;-86
2022/12/06 06:17:58;;;;;;;11.23;5.40;;;;;;;4.14;100.00;101856.25;5076963;28;20035;-86
2022/12/06 06:20:23;;;;;;;12.93;4.93;;;;;;;4.13;100.00;101859.94;5076394;28;20179;-86
2022/12/06 06:22:51;;;;;;;14.82;4.53;;;;;;;4.14;100.00;101860.78;5077042;28;20353;-86
2022/12/06 06:25:16;;;;;;;9.27;4.60;;;;;;;4.15;100.00;101862.47;5059820;28;20036;-87
2022/12/06 06:27:42;;;;;;;11.68;4.70;;;;;;;4.15;100.00;101865.16;5077325;28;20110;-86
2022/12/06 06:30:10;;;;;;;12.40;5.00;;;;;;;4.15;100.00;101863.34;5076820;28;20464;-86
2022/12/06 06:32:36;;;;;;;9.93;4.80;;;;;;;4.14;100.00;101858.94;5076503;28;20089;-86
2022/12/06 06:35:05;;;;;;;11.73;4.20;;;;;;;4.12;100.00;101850.19;5076375;28;20036;-86
2022/12/06 06:37:31;;;;;;;12.63;4.70;;;;;;;4.13;100.00;101864.47;5094338;28;20024;-86
2022/12/06 06:39:58;;;;;;;13.57;4.90;;;;;;;4.11;100.00;101858.41;5076340;28;20032;-86
2022/12/06 06:42:23;;;;;;;13.48;5.05;;;;;;;4.08;100.00;101853.34;5076447;28;20375;-86
2022/12/06 06:44:48;;;;;;;12.90;4.90;;;;;;;4.10;100.00;101856.72;5076324;28;20039;-86
2022/12/06 06:47:14;;;;;;;12.73;4.57;;;;;;;4.08;100.00;101867.59;5076108;28;20067;-87
2022/12/06 06:49:40;;;;;;;11.00;4.70;;;;;;;4.06;100.00;101858.00;5058835;28;20039;-86
2022/12/06 06:52:08;;;;;;;13.77;5.20;;;;;;;3.98;100.00;101851.50;5094003;28;20282;-87
2022/12/06 06:54:33;;;;;;;12.70;5.65;;;;;;;3.88;100.00;101856.06;5075834;28;20028;-87
2022/12/06 06:57:01;;;;;;;14.73;5.10;;;;;;;3.76;100.00;101852.72;5075608;28;20031;-83
2022/12/06 06:59:26;;;;;;;13.80;4.88;;;;;;;3.68;100.00;101845.41;5075781;28;20040;-85
2022/12/06 07:01:54;;;;;;;10.63;4.33;;;;;;;3.61;100.00;101851.50;5075569;28;20101;-85
2022/12/06 07:04:19;;;;;;;14.80;4.97;;;;;;;3.55;100.00;101852.91;5076391;28;20048;-85
2022/12/06 07:06:44;;;;;;;12.57;5.00;;;;;;;3.46;100.00;101849.25;5058940;28;20206;-85
2022/12/06 07:09:10;;;;;;;13.17;5.10;;;;;;;3.41;100.00;101858.72;5075791;28;20032;-86
2022/12/06 07:11:36;;;;;;;15.35;4.72;;;;;;;3.34;100.00;101856.63;5075557;28;20062;-86
2022/12/06 07:14:02;;;;;;;11.63;4.60;;;;;;;3.30;100.00;101857.91;5075040;28;20036;-85
2022/12/06 07:16:28;;;;;;;13.45;4.82;;;;;;;3.27;100.00;101857.34;5059264;28;20387;-86
2022/12/06 07:18:53;;;;;;;11.85;4.53;;;;;;;3.24;100.00;101858.47;5093317;28;20039;-84
2022/12/06 07:21:22;;;;;;;10.50;4.67;;;;;;;3.21;100.00;101853.41;5093448;28;20492;-86
2022/12/06 07:23:47;;;;;;;13.68;5.03;;;;;;;3.18;100.00;101869.78;5075477;28;20108;-85
2022/12/06 07:26:17;;;;;;;13.57;5.30;;;;;;;3.14;100.00;101861.19;5075318;28;20115;-85
2022/12/06 07:28:44;;;;;;;12.90;4.90;;;;;;;3.14;100.00;101863.84;5093415;28;20028;-85
2022/12/06 07:31:25;;;;;;;11.43;4.93;;;;;;;3.20;100.00;101869.63;5075462;28;20032;-86
2022/12/06 07:33:54;;;;;;;15.67;5.10;;;;;;;3.24;100.00;101868.38;5075621;28;20028;-85
2022/12/06 07:36:21;;;;;;;12.43;5.18;;;;;;;3.27;100.00;101863.53;5075487;28;20031;-85
2022/12/06 07:38:53;;;;;;;14.07;4.63;;;;;;;3.28;100.00;101864.41;5075212;28;20114;-85
2022/12/06 07:46:52;;;;;;;11.03;4.60;;;;;;;3.39;100.00;101861.56;5078084;28;20055;-85
2022/12/06 07:49:18;;;;;;;14.02;4.65;;;;;;;3.42;100.00;101863.94;5075128;28;20074;-86
2022/12/06 07:51:44;;;;;;;14.67;4.60;;;;;;;3.46;100.00;101865.38;5058344;28;20032;-85
2022/12/06 07:54:10;;;;;;;10.55;4.78;;;;;;;3.47;100.00;101874.25;5074825;28;20115;-85
2022/12/06 07:56:35;;;;;;;14.52;4.80;;;;;;;3.47;100.00;101877.78;5058252;28;20055;-86
2022/12/06 07:59:01;;;;;;;15.00;4.50;;;;;;;3.50;100.00;101879.34;5074791;28;20067;-84
2022/12/06 08:01:27;;;;;;;11.50;4.25;;;;;;;3.53;100.00;101886.25;5077807;28;20044;-85
2022/12/06 08:03:54;;;;;;;10.63;4.40;;;;;;;3.56;100.00;101883.28;5079879;28;20085;-84
2022/12/06 08:06:20;;;;;;;11.52;4.18;;;;;;;3.57;100.00;101888.50;5062899;28;20392;-86
2022/12/06 08:08:45;;;;;;;10.43;4.67;;;;;;;3.58;100.00;101884.84;5097446;28;20042;-85
2022/12/06 08:11:10;;;;;;;12.47;4.63;;;;;;;3.63;100.00;101890.63;5079063;28;20494;-86
2022/12/06 08:13:40;;;;;;;9.38;4.50;;;;;;;3.67;100.00;101889.31;5079077;28;20032;-85
2022/12/06 08:16:07;;;;;;;10.30;4.47;;;;;;;3.69;100.00;101887.38;5078986;28;20115;-86
2022/12/06 08:18:33;;;;;;;13.93;4.68;;;;;;;3.71;100.00;101887.22;5078949;28;20081;-85
2022/12/06 08:20:58;;;;;;;12.50;4.87;;;;;;;3.74;100.00;101886.94;5078960;28;20028;-85
2022/12/06 08:23:31;;;;;;;13.48;4.55;;;;;;;3.76;100.00;101879.56;5078802;28;20274;-85
2022/12/06 08:26:12;;;;;;;12.82;4.60;;;;;;;3.83;100.00;101883.38;5078600;28;20020;-85
2022/12/06 08:28:38;;;;;;;11.38;5.30;;;;;;;3.87;100.00;101889.31;5078867;28;20031;-85
2022/12/06 08:31:09;;;;;;;13.80;6.25;;;;;;;3.94;100.00;101878.81;5061802;28;20384;-85
2022/12/06 08:33:37;;;;;;;19.35;9.63;;;;;;;4.02;100.00;101884.31;5078640;28;20032;-85
2022/12/06 08:36:08;;;;;;;17.92;8.30;;;;;;;4.05;100.00;101884.00;5079440;28;20070;-85
2022/12/06 08:38:35;;;;;;;15.13;8.10;;;;;;;4.07;100.00;101882.00;5078558;28;20047;-85
2022/12/06 08:41:01;;;;;;;11.52;7.50;;;;;;;4.11;100.00;101882.59;5096684;28;20036;-85
2022/12/06 08:43:26;;;;;;;11.83;5.83;;;;;;;4.08;100.00;101889.09;5061355;28;20028;-85
2022/12/06 08:45:52;;;;;;;10.40;5.20;;;;;;;4.02;100.00;101885.16;5078218;28;20139;-85
2022/12/06 08:48:18;;;;;;;13.20;6.90;;;;;;;4.00;100.00;101883.59;5079042;28;20028;-85
2022/12/06 08:50:43;;;;;;;13.47;6.03;;;;;;;3.95;100.00;101888.56;5078087;28;20391;-85
2022/12/06 08:53:09;;;;;;;10.95;4.35;;;;;;;3.90;100.00;101888.16;5078514;28;20062;-85
2022/12/06 08:55:34;;;;;;;11.73;3.87;;;;;;;3.83;100.00;101895.94;5077919;28;20460;-85
2022/12/06 08:57:59;;;;;;;12.07;3.80;;;;;;;3.77;100.00;101886.63;5061526;28;20028;-85
2022/12/06 09:00:25;;;;;;;11.73;4.40;;;;;;;3.73;100.00;101893.28;5061775;28;20162;-85
2022/12/06 09:02:50;;;;;;;8.90;3.88;;;;;;;3.69;100.00;101894.56;5078730;28;20084;-85
2022/12/06 09:05:16;;;;;;;8.03;3.80;;;;;;;3.65;100.00;101901.22;5078282;28;20407;-85
2022/12/06 09:07:44;;;;;;;15.17;4.37;;;;;;;3.59;100.00;101899.09;5078078;28;20496;-84
2022/12/06 09:10:10;;;;;;;12.82;4.55;;;;;;;3.57;100.00;101904.59;5095863;28;20471;-85
2022/12/06 09:12:35;;;;;;;9.95;4.07;;;;;;;3.55;100.00;101903.06;5061637;28;20047;-85
2022/12/06 09:15:01;;;;;;;9.60;4.50;;;;;;;3.57;100.00;101906.44;5077633;28;20024;-85
2022/12/06 09:17:26;;;;;;;12.23;4.70;;;;;;;3.57;100.00;101904.59;5077669;28;20476;-85
2022/12/06 09:19:52;;;;;;;12.90;4.77;;;;;;;3.60;100.00;101909.72;5060919;28;20040;-85
2022/12/06 09:22:17;;;;;;;10.70;4.75;;;;;;;3.63;100.00;101911.22;5062005;28;20097;-85
2022/12/06 09:24:43;;;;;;;13.47;5.23;;;;;;;3.64;100.00;101912.94;5077788;28;20032;-85
2022/12/06 09:27:10;;;;;;;7.57;4.90;;;;;;;3.63;100.00;101912.09;5044519;28;20028;-85
2022/12/06 09:29:36;;;;;;;13.52;4.80;;;;;;;3.61;100.00;101906.00;5061059;28;20036;-85
2022/12/06 09:32:02;;;;;;;12.03;4.87;;;;;;;3.62;100.00;101910.41;5077310;28;20373;-85
2022/12/06 09:34:27;;;;;;;9.75;4.53;;;;;;;3.63;100.00;101914.78;5077445;28;20043;-85
2022/12/06 09:37:03;;;;;;;12.33;4.83;;;;;;;3.63;100.00;101908.56;5060861;28;20024;-85
2022/12/06 09:39:49;;;;;;;9.82;4.75;;;;;;;3.64;100.00;101907.56;5078202;28;20031;-85
2022/12/06 09:42:52;;;;;;;9.57;4.45;;;;;;;3.67;100.00;101916.16;5077251;28;20034;-85
2022/12/06 09:45:51;;;;;;;11.93;3.78;;;;;;;3.70;100.00;101909.69;4993466;28;20070;-85
2022/12/06 09:48:54;;;;;;;13.37;4.33;;;;;;;3.80;100.00;101915.88;5084259;28;20040;-85
2022/12/06 09:51:43;;;;;;;14.65;4.28;;;;;;;3.86;100.00;101915.28;5077253;28;20047;-85
2022/12/06 09:54:27;;;;;;;11.98;4.07;;;;;;;3.90;100.00;101921.22;5026526;28;20032;-85
2022/12/06 09:56:59;;;;;;;9.80;4.68;;;;;;;3.91;100.00;101917.53;5077665;28;20051;-85
2022/12/06 09:59:57;;;;;;;9.35;4.60;;;;;;;3.95;100.00;101915.41;5077216;28;20028;-85
2022/12/06 10:03:04;;;;;;;9.33;4.13;;;;;;;4.10;100.00;101923.84;5073519;28;20056;-85
2022/12/06 10:05:40;;;;;;;13.00;4.75;;;;;;;4.27;100.00;101911.50;5045189;28;20036;-85
2022/12/06 10:08:24;;;;;;;10.95;5.38;;;;;;;4.54;100.00;101910.66;5073613;28;20028;-85
2022/12/06 10:11:21;;;;;;;15.30;4.20;;;;;;;4.63;100.00;101912.44;5073806;28;20074;-85
2022/12/06 10:13:54;;;;;;;10.52;4.38;;;;;;;4.80;100.00;101908.09;5075099;28;20043;-85
2022/12/06 10:17:00;;;;;;;7.10;3.93;;;;;;;5.07;100.00;101909.06;5073535;28;20025;-85
2022/12/06 10:19:43;;;;;;;8.63;3.65;;;;;;;5.10;100.00;101900.66;5038451;28;20040;-85
2022/12/06 10:22:17;;;;;;;8.02;3.90;;;;;;;5.13;100.00;101897.66;5073705;28;20028;-85
2022/12/06 10:25:02;;;;;;;5.47;3.50;;;;;;;5.17;100.00;101904.44;5074191;28;20124;-85
2022/12/06 10:27:43;;;;;;;5.28;3.58;;;;;;;5.22;100.00;101902.13;5045382;28;20059;-85
2022/12/06 10:30:12;;;;;;;5.77;3.23;;;;;;;5.24;100.00;101893.91;5074481;28;20024;-85
2022/12/06 10:32:52;;;;;;;5.80;2.80;;;;;;;5.22;100.00;101891.34;5074421;28;20029;-85
2022/12/06 10:35:42;;;;;;;6.88;2.90;;;;;;;5.26;100.00;101900.00;5072745;28;20120;-85
2022/12/06 10:38:27;;;;;;;9.25;3.17;;;;;;;5.40;100.00;101898.59;5073254;28;20051;-85
2022/12/06 10:41:09;;;;;;;7.72;3.00;;;;;;;5.44;100.00;101899.97;5073103;28;20123;-85
2022/12/06 10:44:05;;;;;;;7.00;3.00;;;;;;;5.42;100.00;101894.75;5073240;28;20464;-85
2022/12/06 10:49:34;;;;;;;6.32;2.80;;;;;;;5.30;100.00;101903.19;5075037;28;20071;-84
2022/12/06 10:52:26;;;;;;;5.72;3.10;;;;;;;5.34;100.00;101901.91;5073164;28;20263;-85
2022/12/06 10:55:10;;;;;;;6.70;2.60;;;;;;;5.43;100.00;101901.81;5059080;28;20036;-86
2022/12/06 10:57:57;;;;;;;6.47;2.80;;;;;;;5.55;100.00;101906.94;5073100;28;20169;-85
2022/12/06 11:00:25;;;;;;;5.25;2.30;;;;;;;5.61;100.00;101900.97;5073898;28;20499;-85
2022/12/06 11:03:18;;;;;;;8.00;2.38;;;;;;;5.62;100.00;101897.25;5072487;28;20072;-85
2022/12/06 11:06:04;;;;;;;4.75;2.10;;;;;;;5.59;100.00;101901.09;5072994;28;20032;-85
2022/12/06 11:08:35;;;;;;;6.47;2.03;;;;;;;5.65;100.00;101898.78;5072231;28;20029;-85
2022/12/06 11:11:05;;;;;;;7.77;3.03;;;;;;;5.68;100.00;101898.47;5073364;28;20064;-84
2022/12/06 11:13:36;;;;;;;6.32;2.17;;;;;;;5.68;100.00;101899.28;5072386;28;20074;-85
2022/12/06 11:16:31;;;;;;;7.25;2.70;;;;;;;5.72;100.00;101892.59;5073053;28;20036;-85
2022/12/06 11:19:09;;;;;;;4.70;2.17;;;;;;;5.78;100.00;101891.13;5073366;28;20131;-85
2022/12/06 11:21:45;;;;;;;4.97;2.30;;;;;;;5.89;100.00;101890.88;5073430;28;20094;-85
2022/12/06 11:24:29;;;;;;;3.40;1.57;;;;;;;6.29;100.00;101888.59;5072639;28;20115;-84
2022/12/06 11:27:04;;;;;;;5.13;1.70;;;;;;;6.80;99.03;101883.19;5072451;28;20024;-85
2022/12/06 11:29:30;;;;;;;3.28;1.80;;;;;;;7.20;97.98;101877.03;5072323;28;20115;-85
2022/12/06 11:32:01;;;;;;;9.25;2.00;;;;;;;7.40;96.45;101884.78;5055355;28;20059;-85
2022/12/06 11:34:35;;;;;;;4.32;1.95;;;;;;;7.88;97.34;101876.78;5071693;28;20030;-85
2022/12/06 11:37:02;;;;;;;5.57;1.93;;;;;;;9.45;94.13;101874.13;5072161;28;20436;-85
2022/12/06 11:39:29;;;;;;;5.35;2.10;;;;;;;12.26;80.80;101869.06;5072407;28;20035;-85
2022/12/06 11:41:58;;;;;;;4.07;1.45;;;;;;;14.82;71.73;101861.47;5072187;28;20036;-85
2022/12/06 11:44:56;;;;;;;4.40;1.67;;;;;;;16.56;69.82;101853.53;5073419;28;20047;-85
2022/12/06 11:47:22;;;;;;;2.53;1.20;;;;;;;17.95;53.88;101849.69;5053351;28;20389;-85
2022/12/06 11:49:51;;;;;;;2.37;1.27;;;;;;;17.75;47.89;101844.53;5071939;28;20039;-85
2022/12/06 11:52:32;;;;;;;2.42;1.05;;;;;;;17.05;54.28;101851.63;5071975;28;20045;-86
2022/12/06 11:55:06;;;;;;;4.75;1.50;;;;;;;16.45;52.97;101850.50;5072570;28;20024;-87
2022/12/06 11:57:41;;;;;;;4.20;1.02;;;;;;;15.80;52.13;101840.13;5072880;28;20075;-85
2022/12/06 12:00:16;;;;;;;2.58;1.15;;;;;;;15.31;52.77;101845.38;5072864;28;20364;-84
2022/12/06 12:02:44;;;;;;;7.10;1.67;;;;;;;15.06;53.00;101831.69;5089933;28;20052;-85
2022/12/06 12:05:24;;;;;;;3.83;1.80;;;;;;;15.54;53.93;101830.22;5093081;28;20040;-86
2022/12/06 12:07:56;;;;;;;2.83;1.55;;;;;;;16.35;52.11;101833.78;5075571;28;20032;-86
2022/12/06 12:10:33;;;;;;;3.80;1.30;;;;;;;16.49;48.88;101820.78;5094022;28;20032;-86